createdAt,value
2023-01-25T00:02:11.010Z,41.33
2023-01-25T00:04:40.456Z,41.78
2023-01-25T00:07:09.848Z,32.85
2023-01-25T00:09:39.306Z,34.67
2023-01-25T00:12:08.966Z,39.88
2023-01-25T00:14:38.383Z,36.78
2023-01-25T00:17:10.534Z,33.30
2023-01-25T00:19:39.949Z,48.25
2023-01-25T00:22:09.405Z,43.30
2023-01-25T00:24:38.840Z,40.10
2023-01-25T00:27:08.223Z,36.80
2023-01-25T00:29:37.577Z,39.28
2023-01-25T00:32:45.342Z,39.47
2023-01-25T00:35:15.349Z,41.25
2023-01-25T00:37:46.213Z,35.03
2023-01-25T00:40:15.975Z,37.53
2023-01-25T00:42:45.490Z,38.88
2023-01-25T00:45:15.534Z,35.65
2023-01-25T00:47:47.595Z,29.60
2023-01-25T00:50:17.040Z,34.03
2023-01-25T00:52:46.460Z,36.72
2023-01-25T00:55:16.040Z,34.97
2023-01-25T00:57:45.472Z,34.13
2023-01-25T01:00:16.027Z,37.30
2023-01-25T01:02:48.063Z,51.83
2023-01-25T01:05:17.872Z,35.53
2023-01-25T01:07:47.305Z,35.75
2023-01-25T01:10:17.162Z,40.10
2023-01-25T01:12:46.577Z,39.08
2023-01-25T01:15:15.947Z,35.13
2023-01-25T01:17:47.905Z,37.60
2023-01-25T01:20:17.565Z,36.75
2023-01-25T01:22:46.980Z,45.63
2023-01-25T01:25:16.425Z,48.25
2023-01-25T01:27:45.811Z,39.55
2023-01-25T01:30:16.007Z,38.35
2023-01-25T01:32:48.122Z,34.38
2023-01-25T01:35:17.808Z,32.97
2023-01-25T01:37:47.252Z,44.15
2023-01-25T01:40:17.597Z,32.88
2023-01-25T01:43:00.334Z,37.53
2023-01-25T01:45:53.900Z,43.72
2023-01-25T01:48:34.190Z,40.97
2023-01-25T01:51:05.902Z,39.65
2023-01-25T01:53:36.207Z,35.63
2023-01-25T01:56:08.457Z,38.22
2023-01-25T01:58:39.537Z,42.50
2023-01-25T02:01:09.015Z,43.67
2023-01-25T02:03:50.722Z,43.47
2023-01-25T02:06:27.004Z,39.25
2023-01-25T02:08:56.720Z,42.65
2023-01-25T02:11:27.079Z,42.40
2023-01-25T02:13:57.579Z,40.25
2023-01-25T02:16:29.366Z,31.83
2023-01-25T02:19:03.743Z,41.08
2023-01-25T02:21:38.367Z,45.17
2023-01-25T02:24:12.097Z,37.17
2023-01-25T02:26:44.699Z,38.95
2023-01-25T02:29:14.492Z,37.08
2023-01-25T02:31:47.161Z,28.45
2023-01-25T02:34:16.639Z,37.15
2023-01-25T02:36:46.104Z,36.53
2023-01-25T02:39:20.388Z,40.10
2023-01-25T02:41:52.601Z,39.47
2023-01-25T02:44:24.910Z,45.63
2023-01-25T02:46:54.545Z,39.55
2023-01-25T02:49:24.417Z,36.53
2023-01-25T02:51:57.325Z,34.92
2023-01-25T02:54:27.852Z,37.25
2023-01-25T02:56:59.895Z,37.88
2023-01-25T02:59:29.345Z,33.40
2023-01-25T03:01:58.894Z,32.05
2023-01-25T03:04:28.480Z,32.78
2023-01-25T03:06:57.973Z,31.92
2023-01-25T03:09:27.348Z,30.52
2023-01-25T03:11:59.298Z,31.27
2023-01-25T03:14:28.715Z,25.58
2023-01-25T03:16:58.162Z,32.50
2023-01-25T03:19:27.577Z,27.85
2023-01-25T03:21:58.023Z,31.42
2023-01-25T03:24:27.505Z,27.73
2023-01-25T03:27:16.968Z,26.52
2023-01-25T03:29:46.473Z,35.65
2023-01-25T03:32:16.175Z,31.73
2023-01-25T03:34:45.635Z,25.88
2023-01-25T03:37:15.229Z,32.03
2023-01-25T03:39:44.871Z,28.52
2023-01-25T03:42:16.931Z,32.33
2023-01-25T03:44:46.338Z,32.40
2023-01-25T03:47:16.391Z,40.80
2023-01-25T03:49:46.026Z,32.40
2023-01-25T03:52:15.461Z,35.33
2023-01-25T03:54:44.839Z,37.70
2023-01-25T03:57:16.906Z,37.25
2023-01-25T03:59:46.289Z,33.00
2023-01-25T04:02:15.765Z,31.00
2023-01-25T04:04:45.173Z,38.03
2023-01-25T04:07:14.647Z,42.72
2023-01-25T04:09:44.016Z,34.65
2023-01-25T04:12:16.045Z,48.38
2023-01-25T04:14:45.479Z,36.70
2023-01-25T04:17:14.965Z,36.58
2023-01-25T04:19:44.391Z,32.58
2023-01-25T04:22:13.803Z,28.52
2023-01-25T04:24:43.214Z,32.78
2023-01-25T04:27:12.994Z,32.90
2023-01-25T04:29:44.979Z,43.03
2023-01-25T04:32:14.443Z,37.30
2023-01-25T04:34:43.878Z,37.28
2023-01-25T04:37:13.303Z,38.63
2023-01-25T04:39:42.676Z,33.85
2023-01-25T04:42:12.060Z,47.78
2023-01-25T04:44:41.462Z,41.95
2023-01-25T04:47:13.494Z,37.17
2023-01-25T04:49:42.863Z,36.38
2023-01-25T04:52:12.324Z,36.35
2023-01-25T04:54:41.753Z,35.90
2023-01-25T04:57:13.297Z,38.15
2023-01-25T04:59:42.750Z,38.53
2023-01-25T05:02:14.838Z,39.78
2023-01-25T05:04:44.309Z,40.75
2023-01-25T05:07:13.932Z,41.85
2023-01-25T05:09:43.315Z,44.78
2023-01-25T05:12:14.134Z,40.17
2023-01-25T05:14:43.507Z,39.65
2023-01-25T05:17:15.627Z,33.47
2023-01-25T05:19:45.093Z,43.25
2023-01-25T05:22:17.289Z,38.80
2023-01-25T05:24:47.221Z,40.83
2023-01-25T05:27:16.737Z,36.35
2023-01-25T05:29:47.395Z,39.33
2023-01-25T05:32:21.614Z,36.90
2023-01-25T05:34:51.365Z,30.38
2023-01-25T05:37:22.801Z,36.80
2023-01-25T05:39:52.497Z,39.55
2023-01-25T05:42:22.028Z,32.45
2023-01-25T05:44:51.464Z,35.10
2023-01-25T05:47:23.451Z,34.85
2023-01-25T05:49:52.845Z,34.50
2023-01-25T05:52:22.514Z,30.30
2023-01-25T05:54:52.239Z,35.10
2023-01-25T05:57:21.643Z,37.92
2023-01-25T05:59:51.035Z,34.72
2023-01-25T06:02:23.363Z,30.85
2023-01-25T06:04:52.809Z,35.88
2023-01-25T06:07:24.515Z,35.75
2023-01-25T06:09:54.139Z,32.13
2023-01-25T06:12:24.107Z,39.35
2023-01-25T06:14:53.856Z,30.95
2023-01-25T06:17:25.955Z,33.70
2023-01-25T06:19:55.376Z,35.35
2023-01-25T06:22:24.788Z,35.40
2023-01-25T06:24:54.206Z,37.65
2023-01-25T06:27:23.675Z,39.53
2023-01-25T06:29:53.201Z,40.40
2023-01-25T06:32:24.194Z,41.72
2023-01-25T06:34:56.243Z,35.45
2023-01-25T06:37:25.603Z,42.10
2023-01-25T06:39:55.058Z,37.63
2023-01-25T06:42:26.728Z,35.58
2023-01-25T06:44:56.480Z,33.80
2023-01-25T06:47:25.980Z,35.90
2023-01-25T06:49:57.977Z,39.85
2023-01-25T06:52:27.433Z,33.85
2023-01-25T06:54:56.814Z,32.75
2023-01-25T06:57:26.378Z,34.53
2023-01-25T06:59:55.790Z,38.17
2023-01-25T07:02:25.240Z,30.85
2023-01-25T07:04:54.712Z,34.65
2023-01-25T07:07:26.887Z,20.33
2023-01-25T07:09:56.303Z,27.48
2023-01-25T07:12:26.009Z,29.77
2023-01-25T07:14:55.446Z,27.10
2023-01-25T07:17:25.119Z,33.10
2023-01-25T07:19:54.514Z,27.02
2023-01-25T07:22:26.629Z,32.33
2023-01-25T07:24:57.881Z,37.58
2023-01-25T07:27:27.332Z,31.38
2023-01-25T07:29:56.719Z,33.97
2023-01-25T07:32:26.308Z,37.17
2023-01-25T07:34:55.724Z,35.45
2023-01-25T07:37:28.236Z,35.67
2023-01-25T07:39:58.305Z,33.97
2023-01-25T07:42:28.020Z,30.58
2023-01-25T07:44:57.448Z,31.65
2023-01-25T07:47:26.908Z,31.30
2023-01-25T07:49:56.827Z,33.90
2023-01-25T07:52:29.286Z,32.92
2023-01-25T07:54:59.501Z,32.72
2023-01-25T07:57:28.968Z,29.67
2023-01-25T07:59:58.382Z,26.98
2023-01-25T08:02:27.786Z,27.92
2023-01-25T08:04:57.154Z,30.73
2023-01-25T08:07:31.387Z,33.38
2023-01-25T08:10:00.814Z,23.35
2023-01-25T08:12:30.683Z,32.17
2023-01-25T08:15:00.109Z,38.55
2023-01-25T08:17:32.627Z,35.10
2023-01-25T08:20:02.091Z,35.75
2023-01-25T08:22:34.701Z,36.00
2023-01-25T08:25:04.157Z,37.45
2023-01-25T08:27:33.767Z,39.78
2023-01-25T08:30:03.246Z,35.10
2023-01-25T08:32:32.658Z,28.50
2023-01-25T08:35:02.091Z,27.33
2023-01-25T08:37:34.082Z,39.47
2023-01-25T08:40:03.531Z,38.60
2023-01-25T08:42:32.988Z,41.78
2023-01-25T08:45:02.948Z,39.03
2023-01-25T08:47:33.190Z,35.05
2023-01-25T08:50:02.628Z,34.40
2023-01-25T08:52:34.663Z,37.20
2023-01-25T08:55:04.539Z,33.10
2023-01-25T08:57:34.144Z,37.88
2023-01-25T09:00:03.514Z,36.03
2023-01-25T09:02:32.946Z,35.80
2023-01-25T09:05:02.381Z,54.90
2023-01-25T09:07:38.546Z,43.20
2023-01-25T09:10:09.457Z,38.25
2023-01-25T09:12:39.143Z,39.13
2023-01-25T09:15:09.819Z,38.22
2023-01-25T09:17:39.611Z,75.88
2023-01-25T09:20:10.945Z,29.92
2023-01-25T09:22:43.039Z,36.17
2023-01-25T09:25:12.960Z,35.63
2023-01-25T09:27:42.696Z,34.83
2023-01-25T09:30:18.825Z,34.65
2023-01-25T09:32:51.266Z,40.90
2023-01-25T09:35:23.696Z,42.63
2023-01-25T09:37:56.182Z,33.55
2023-01-25T09:40:26.921Z,39.60
2023-01-25T09:43:03.320Z,39.53
2023-01-25T09:45:37.325Z,37.78
2023-01-25T09:48:20.426Z,39.05
2023-01-25T09:51:13.880Z,42.78
2023-01-25T09:53:50.660Z,39.50
2023-01-25T09:56:23.588Z,39.47
2023-01-25T09:58:54.838Z,37.10
2023-01-25T10:01:38.008Z,18.65
2023-01-25T10:04:13.663Z,25.35
2023-01-25T10:06:55.133Z,54.55
2023-01-25T10:09:38.927Z,37.33
2023-01-25T10:12:14.840Z,30.83
2023-01-25T10:14:44.464Z,49.60
2023-01-25T10:17:17.284Z,45.15
2023-01-25T10:20:00.263Z,50.15
2023-01-25T10:22:32.193Z,53.22
2023-01-25T10:25:29.987Z,35.22
2023-01-25T10:28:15.235Z,49.60
2023-01-25T10:30:50.387Z,51.83
2023-01-25T10:33:21.631Z,54.95
2023-01-25T10:35:52.701Z,60.65
2023-01-25T10:38:26.834Z,59.60
2023-01-25T10:41:03.027Z,54.67
2023-01-25T10:43:32.694Z,57.95
2023-01-25T10:46:02.116Z,67.50
2023-01-25T10:48:34.793Z,56.65
2023-01-25T10:51:04.256Z,62.20
2023-01-25T10:53:37.531Z,58.80
2023-01-25T10:56:22.509Z,68.63
2023-01-25T10:58:54.472Z,44.97
2023-01-25T11:01:33.038Z,63.75
2023-01-25T11:04:03.891Z,48.55
2023-01-25T11:06:36.040Z,53.80
2023-01-25T11:09:10.461Z,69.32
2023-01-25T11:11:42.752Z,65.13
2023-01-25T11:14:18.808Z,57.28
2023-01-25T11:16:50.560Z,73.93
2023-01-25T11:19:33.738Z,53.00
2023-01-25T11:22:04.427Z,66.85
2023-01-25T11:24:35.887Z,52.85
2023-01-25T11:27:21.211Z,48.92
2023-01-25T11:30:11.104Z,69.75
2023-01-25T11:32:41.935Z,62.38
2023-01-25T11:35:19.600Z,46.65
2023-01-25T11:38:03.685Z,35.50
2023-01-25T11:40:39.850Z,47.22
2023-01-25T11:43:19.930Z,34.17
2023-01-25T11:46:05.032Z,47.13
2023-01-25T11:49:01.844Z,42.88
2023-01-25T11:51:35.315Z,59.80
2023-01-25T11:54:33.235Z,62.00
2023-01-25T11:57:04.172Z,40.33
2023-01-25T11:59:55.938Z,53.13
2023-01-25T12:02:42.848Z,68.00
2023-01-25T12:05:22.659Z,56.97
2023-01-25T12:07:57.645Z,53.53
2023-01-25T12:10:33.201Z,58.67
2023-01-25T12:13:05.592Z,50.95
2023-01-25T12:15:52.483Z,64.57
2023-01-25T12:18:33.342Z,53.17
2023-01-25T12:21:20.061Z,61.90
2023-01-25T12:24:11.332Z,49.15
2023-01-25T12:26:45.147Z,52.65
2023-01-25T12:29:22.009Z,58.25
2023-01-25T12:31:57.885Z,66.30
2023-01-25T12:34:31.682Z,56.78
2023-01-25T12:37:03.493Z,42.90
2023-01-25T12:39:35.906Z,55.63
2023-01-25T12:42:09.231Z,23.90
2023-01-25T12:44:41.875Z,51.67
2023-01-25T12:47:18.815Z,38.05
2023-01-25T12:49:53.082Z,68.88
2023-01-25T12:52:26.335Z,53.72
2023-01-25T12:54:57.079Z,42.03
2023-01-25T12:57:32.239Z,62.30
2023-01-25T13:00:09.866Z,49.90
2023-01-25T13:03:09.767Z,57.13
2023-01-25T13:05:42.604Z,67.13
2023-01-25T13:08:31.091Z,23.38
2023-01-25T13:11:10.561Z,41.97
2023-01-25T13:13:40.009Z,57.80
2023-01-25T13:16:34.921Z,59.97
2023-01-25T13:19:07.006Z,67.93
2023-01-25T13:21:45.129Z,60.30
2023-01-25T13:24:25.172Z,68.38
2023-01-25T13:27:06.355Z,60.97
2023-01-25T13:30:06.418Z,48.50
2023-01-25T13:33:06.968Z,56.45
2023-01-25T13:35:46.344Z,51.85
2023-01-25T13:38:39.807Z,52.55
2023-01-25T13:41:15.563Z,56.20
2023-01-25T13:43:47.177Z,64.47
2023-01-25T13:46:20.509Z,60.10
2023-01-25T13:48:55.258Z,67.03
2023-01-25T13:51:28.325Z,49.63
2023-01-25T13:53:59.110Z,62.15
2023-01-25T13:56:33.662Z,56.70
2023-01-25T13:59:03.504Z,51.15
2023-01-25T14:01:34.589Z,59.47
2023-01-25T14:04:06.061Z,49.40
2023-01-25T14:06:40.805Z,91.72
2023-01-25T14:09:17.048Z,60.38
2023-01-25T14:11:48.680Z,55.72
2023-01-25T14:14:23.854Z,60.10
2023-01-25T14:17:20.874Z,60.35
2023-01-25T14:19:52.323Z,54.72
2023-01-25T14:22:27.460Z,53.00
2023-01-25T14:25:09.784Z,65.30
2023-01-25T14:27:43.345Z,54.22
2023-01-25T14:30:19.710Z,60.40
2023-01-25T14:32:49.261Z,60.83
2023-01-25T14:35:43.327Z,56.50
2023-01-25T14:38:31.042Z,40.28
2023-01-25T14:41:04.041Z,32.42
2023-01-25T14:43:33.874Z,54.90
2023-01-25T14:46:03.327Z,51.00
2023-01-25T14:48:40.833Z,52.58
2023-01-25T14:51:21.495Z,56.53
2023-01-25T14:53:58.694Z,48.28
2023-01-25T14:56:37.510Z,56.42
2023-01-25T14:59:07.969Z,71.95
2023-01-25T15:01:42.082Z,46.70
2023-01-25T15:04:15.568Z,65.35
2023-01-25T15:06:49.622Z,66.00
2023-01-25T15:09:40.183Z,67.70
2023-01-25T15:12:31.401Z,78.82
2023-01-25T15:15:02.890Z,71.68
2023-01-25T15:17:39.143Z,76.75
2023-01-25T15:20:10.193Z,76.45
2023-01-25T15:22:39.743Z,77.07
2023-01-25T15:25:23.884Z,77.15
2023-01-25T15:27:54.710Z,80.10
2023-01-25T15:30:24.230Z,68.95
2023-01-25T15:32:53.777Z,75.80
2023-01-25T15:35:23.677Z,65.28
2023-01-25T15:37:53.038Z,68.63
2023-01-25T15:40:24.988Z,55.70
2023-01-25T15:42:55.729Z,65.38
2023-01-25T15:45:25.085Z,62.22
2023-01-25T15:47:54.480Z,67.70
2023-01-25T15:50:23.925Z,80.40
2023-01-25T15:52:53.344Z,56.90
2023-01-25T15:55:26.761Z,75.25
2023-01-25T15:57:57.367Z,65.40
2023-01-25T16:00:27.055Z,82.53
2023-01-25T16:02:56.507Z,77.45
2023-01-25T16:05:25.926Z,82.85
2023-01-25T16:07:55.877Z,82.05
2023-01-25T16:10:28.031Z,73.40
2023-01-25T16:12:57.442Z,79.82
2023-01-25T16:15:26.819Z,78.38
2023-01-25T16:17:56.239Z,63.88
2023-01-25T16:20:25.649Z,57.80
2023-01-25T16:22:55.071Z,80.80
2023-01-25T16:25:24.553Z,80.75
2023-01-25T16:27:56.746Z,69.82
2023-01-25T16:30:31.192Z,78.63
2023-01-25T16:33:00.790Z,73.18
2023-01-25T16:35:30.219Z,66.90
2023-01-25T16:37:59.842Z,93.22
2023-01-25T16:40:32.599Z,69.90
2023-01-25T16:43:04.548Z,72.93
2023-01-25T16:45:33.958Z,76.75
2023-01-25T16:48:04.018Z,66.63
2023-01-25T16:50:33.483Z,84.50
2023-01-25T16:53:03.119Z,78.38
2023-01-25T16:55:32.565Z,62.13
2023-01-25T16:58:04.813Z,58.30
2023-01-25T17:00:34.273Z,72.05
2023-01-25T17:03:03.688Z,69.32
2023-01-25T17:05:34.271Z,66.72
2023-01-25T17:08:03.808Z,76.88
2023-01-25T17:10:35.839Z,72.43
2023-01-25T17:13:08.846Z,81.70
2023-01-25T17:15:38.243Z,71.68
2023-01-25T17:18:07.703Z,80.68
2023-01-25T17:20:37.106Z,83.03
2023-01-25T17:23:06.489Z,80.57
2023-01-25T17:25:40.518Z,81.10
2023-01-25T17:28:12.693Z,77.78
2023-01-25T17:30:43.047Z,65.10
2023-01-25T17:33:12.910Z,82.93
2023-01-25T17:35:42.349Z,79.32
2023-01-25T17:38:11.787Z,79.93
2023-01-25T17:40:41.163Z,55.00
2023-01-25T17:43:13.122Z,56.25
2023-01-25T17:45:42.520Z,74.30
2023-01-25T17:48:12.832Z,83.78
2023-01-25T17:50:42.633Z,70.72
2023-01-25T17:53:13.053Z,92.82
2023-01-25T17:55:42.456Z,69.53
2023-01-25T17:58:14.408Z,92.63
2023-01-25T18:00:43.824Z,83.68
2023-01-25T18:03:13.458Z,84.95
2023-01-25T18:05:44.686Z,72.00
2023-01-25T18:08:14.205Z,83.80
2023-01-25T18:10:43.989Z,94.35
2023-01-25T18:13:15.977Z,102.63
2023-01-25T18:15:45.429Z,76.95
2023-01-25T18:18:14.925Z,111.82
2023-01-25T18:20:44.314Z,85.53
2023-01-25T18:23:13.777Z,99.53
2023-01-25T18:25:43.142Z,99.25
2023-01-25T18:28:18.363Z,103.30
2023-01-25T18:30:53.617Z,105.88
2023-01-25T18:33:23.435Z,107.35
2023-01-25T18:35:54.010Z,106.45
2023-01-25T18:38:23.410Z,104.72
2023-01-25T18:40:52.775Z,85.30
2023-01-25T18:43:25.111Z,92.72
2023-01-25T18:45:57.936Z,78.65
2023-01-25T18:48:30.456Z,101.78
2023-01-25T18:51:00.726Z,89.25
2023-01-25T18:53:30.220Z,43.40
2023-01-25T18:56:04.073Z,85.18
2023-01-25T18:58:37.626Z,78.03
2023-01-25T19:01:09.347Z,95.47
2023-01-25T19:03:38.735Z,73.80
2023-01-25T19:06:08.676Z,66.90
2023-01-25T19:08:41.335Z,52.22
2023-01-25T19:11:12.405Z,69.95
2023-01-25T19:13:45.296Z,84.43
2023-01-25T19:16:16.619Z,77.95
2023-01-25T19:18:49.768Z,106.40
2023-01-25T19:21:20.587Z,89.13
2023-01-25T19:23:50.367Z,101.30
2023-01-25T19:26:21.413Z,104.82
2023-01-25T19:28:53.677Z,101.38
2023-01-25T19:31:24.323Z,103.68
2023-01-25T19:33:57.612Z,106.95
2023-01-25T19:36:27.022Z,93.93
2023-01-25T19:38:57.389Z,93.85
2023-01-25T19:41:28.495Z,99.57
2023-01-25T19:44:01.819Z,98.78
2023-01-25T19:46:32.888Z,90.50
2023-01-25T19:49:04.230Z,96.50
2023-01-25T19:51:34.869Z,102.30
2023-01-25T19:54:06.045Z,110.72
2023-01-25T19:56:36.901Z,98.05
2023-01-25T19:59:10.582Z,91.22
2023-01-25T20:01:44.197Z,93.68
2023-01-25T20:04:14.695Z,89.00
2023-01-25T20:06:44.507Z,102.10
2023-01-25T20:09:14.979Z,94.13
2023-01-25T20:11:44.595Z,86.75
2023-01-25T20:14:16.804Z,100.03
2023-01-25T20:16:47.084Z,95.45
2023-01-25T20:19:16.490Z,95.97
2023-01-25T20:21:45.897Z,83.57
2023-01-25T20:24:15.330Z,87.30
2023-01-25T20:26:45.181Z,98.43
2023-01-25T20:29:17.291Z,84.43
2023-01-25T20:31:48.077Z,97.38
2023-01-25T20:34:19.157Z,86.78
2023-01-25T20:36:49.166Z,90.28
2023-01-25T20:39:20.974Z,94.50
2023-01-25T20:41:53.272Z,85.13
2023-01-25T20:44:25.495Z,95.57
2023-01-25T20:46:55.726Z,82.30
2023-01-25T20:49:25.387Z,88.28
2023-01-25T20:51:54.789Z,95.18
2023-01-25T20:54:24.147Z,90.45
2023-01-25T20:56:53.588Z,87.97
2023-01-25T20:59:25.619Z,97.07
2023-01-25T21:01:55.210Z,84.10
2023-01-25T21:04:24.782Z,86.93
2023-01-25T21:06:54.235Z,82.00
2023-01-25T21:09:26.233Z,97.20
2023-01-25T21:11:55.682Z,97.60
2023-01-25T21:14:30.615Z,95.47
2023-01-25T21:17:00.743Z,98.80
2023-01-25T21:19:30.168Z,88.68
2023-01-25T21:21:59.590Z,108.95
2023-01-25T21:24:29.028Z,81.60
2023-01-25T21:26:58.408Z,72.88
2023-01-25T21:29:30.375Z,89.00
2023-01-25T21:31:59.802Z,85.22
2023-01-25T21:34:30.936Z,94.40
2023-01-25T21:37:00.348Z,95.40
2023-01-25T21:39:29.761Z,86.85
2023-01-25T21:41:59.148Z,91.20
2023-01-25T21:44:43.570Z,98.82
2023-01-25T21:47:29.369Z,85.72
2023-01-25T21:50:12.384Z,83.43
2023-01-25T21:52:42.008Z,81.72
2023-01-25T21:55:12.707Z,89.15
2023-01-25T21:57:47.110Z,86.93
2023-01-25T22:00:20.649Z,99.85
2023-01-25T22:02:50.329Z,85.80
2023-01-25T22:05:19.773Z,69.40
2023-01-25T22:07:49.179Z,62.47
2023-01-25T22:10:19.434Z,78.60
2023-01-25T22:12:50.712Z,87.65
2023-01-25T22:15:22.715Z,88.40
2023-01-25T22:17:52.090Z,86.32
2023-01-25T22:20:21.710Z,93.80
2023-01-25T22:22:51.110Z,97.22
2023-01-25T22:25:20.482Z,90.05
2023-01-25T22:27:55.282Z,91.18
2023-01-25T22:30:27.500Z,108.18
2023-01-25T22:32:57.068Z,101.60
2023-01-25T22:35:26.516Z,60.63
2023-01-25T22:37:55.919Z,86.85
2023-01-25T22:40:25.292Z,101.10
2023-01-25T22:42:54.659Z,88.82
2023-01-25T22:45:24.076Z,87.93
2023-01-25T22:47:56.027Z,109.65
2023-01-25T22:50:25.476Z,105.65
2023-01-25T22:52:54.829Z,105.68
2023-01-25T22:55:24.195Z,112.18
2023-01-25T22:57:53.819Z,99.35
2023-01-25T23:00:23.675Z,98.50
2023-01-25T23:02:53.071Z,124.15
2023-01-25T23:05:25.061Z,97.47
2023-01-25T23:07:54.461Z,109.32
2023-01-25T23:10:23.933Z,116.00
2023-01-25T23:12:55.295Z,104.18
2023-01-25T23:15:24.901Z,110.47
2023-01-25T23:18:06.784Z,115.45
2023-01-25T23:20:38.766Z,102.82
2023-01-25T23:23:08.225Z,107.05
2023-01-25T23:25:37.629Z,104.35
2023-01-25T23:28:07.090Z,96.63
2023-01-25T23:30:36.549Z,98.30
2023-01-25T23:33:06.118Z,115.60
2023-01-25T23:35:38.113Z,110.22
2023-01-25T23:38:16.031Z,84.95
2023-01-25T23:40:45.632Z,105.38
2023-01-25T23:43:15.032Z,103.35
2023-01-25T23:45:45.565Z,110.07
2023-01-25T23:48:14.979Z,86.55
2023-01-25T23:50:46.995Z,97.80
2023-01-25T23:53:16.371Z,91.93
2023-01-25T23:55:54.229Z,97.22
2023-01-25T23:58:24.432Z,77.70
